Карточка аэропорта UNKL

Внимание!
Информация на этой странице в стадии наполнения.
Если вы не увидели какой-то информации, или заметили неточность - пожалуйста сообщите нам!
Спасибо!
Команда RU-STAFF
Название аэропортаЕмельяново
Название аэропорта (англ.)Yemelyanovo
Превышение942 ft. (287.1 m.)
Координаты56°10.386', 92°29.598'
Высота перехода1200m
Эшелон переходаQFE>=729mm: FL060; QFE<729mm: FL070
Коды ответчика5320-5377
Зона ОрВДКрасноярск РПИ (UNKL)
Данные METARUNKL 271130Z 26005MPS 0550 0500S R29/1400N +SHSN VV008 M05/M07 Q1013 R29/490240 TEMPO 25008G18MPS 1500 SHSN BLSN RMK QFE734
Проноз погоды (TAF)UNKL 270950Z 2709/2809 23008G18MPS 1500 SHSN BLSN BKN016CB TEMPO 2709/2711 25013G25MPS 0500 +SHSN BLSN VV002 BECMG 2712/2713 3000 -SHSN BLSN TEMPO 2713/2715 1000 SHSN BLSN BECMG 2715/2717 25003G08MPS 6000 -SHSN
NOTAMshow/hide NOTAM
AWOS   TABLE

Информация о ВПП

ВПП Длина ВПП (м.) Покрытие Курс ВПП Частота ILS
113700Асфальтобетон109110.5
293700Асфальтобетон289111.7

Диспетчерские позиции

Позывной Наименование органа УВД Частота
UNKL_TWRКрасноярск-Старт/Посадка118.3
UNKL_GNDКрасноярск-Руление121.9
UNKL_R_APPКрасноярск-Круг122.0
UNKL_APPКрасноярск-Подход127.7



Спутниковое изображение